Time;durP1;ratioP1;P1;durP2;ratioP2;P2;SDS_P1;SDS_P2;PMS_P1;PMS_P2;Temp;Humidity;BMP_temperature;BMP_pressure;BME280_temperature;BME280_humidity;BME280_pressure;Samples;Min_cycle;Max_cycle;Signal;HPM_P1;HPM_P2
2021/01/01 00:00:09;;;;;;;26.55;18.33;;;1.30;99.90;;;;;;5110391;28;20062;-74
2021/01/01 00:02:37;;;;;;;30.13;19.58;;;1.30;99.90;;;;;;5110061;28;20047;-74
2021/01/01 00:05:05;;;;;;;29.42;20.58;;;1.20;99.90;;;;;;5110385;28;20390;-74
2021/01/01 00:07:31;;;;;;;31.45;20.35;;;1.20;99.90;;;;;;5108761;27;20109;-73
2021/01/01 00:09:57;;;;;;;29.95;21.23;;;1.10;99.90;;;;;;5104720;28;20051;-74
2021/01/01 00:12:25;;;;;;;30.77;21.08;;;1.10;99.90;;;;;;5104488;28;20050;-74
2021/01/01 00:14:51;;;;;;;30.08;20.95;;;1.10;99.90;;;;;;5111506;27;20093;-74
2021/01/01 00:17:18;;;;;;;34.08;21.45;;;1.00;99.90;;;;;;5109290;28;20512;-75
2021/01/01 00:19:44;;;;;;;34.90;22.20;;;1.00;99.90;;;;;;5109201;28;20786;-74
2021/01/01 00:22:14;;;;;;;35.67;23.58;;;1.00;99.90;;;;;;5109693;28;20048;-74
2021/01/01 00:24:40;;;;;;;45.10;27.65;;;1.00;99.90;;;;;;5109887;28;20050;-74
2021/01/01 00:27:06;;;;;;;38.58;24.85;;;1.00;99.90;;;;;;5106094;28;20120;-74
2021/01/01 00:29:33;;;;;;;42.08;25.45;;;1.00;99.90;;;;;;5109288;28;20047;-75
2021/01/01 00:32:00;;;;;;;40.45;25.95;;;1.00;99.90;;;;;;5110717;28;20143;-74
2021/01/01 00:34:26;;;;;;;44.30;25.45;;;1.00;99.90;;;;;;5111103;28;20100;-74
2021/01/01 00:36:53;;;;;;;43.50;26.98;;;1.00;99.90;;;;;;5109261;28;20154;-74
2021/01/01 00:39:19;;;;;;;47.58;27.35;;;1.00;99.90;;;;;;5098163;28;20064;-74
2021/01/01 00:41:46;;;;;;;36.75;25.20;;;0.90;99.90;;;;;;5107411;28;20051;-74
2021/01/01 00:44:12;;;;;;;39.92;24.90;;;0.90;99.90;;;;;;5111305;27;20466;-74
2021/01/01 00:46:38;;;;;;;46.90;27.60;;;0.90;99.90;;;;;;5109473;28;20108;-74
2021/01/01 00:49:05;;;;;;;46.20;29.38;;;0.90;99.90;;;;;;5109241;28;20051;-74
2021/01/01 00:51:33;;;;;;;47.38;28.20;;;0.90;99.90;;;;;;5109089;27;20447;-74
2021/01/01 00:54:00;;;;;;;43.45;26.10;;;0.90;99.90;;;;;;5112703;27;20072;-75
2021/01/01 00:56:27;;;;;;;43.25;26.60;;;0.90;99.90;;;;;;5127605;27;20124;-74
2021/01/01 00:58:55;;;;;;;44.67;27.40;;;0.90;99.90;;;;;;5112380;27;20475;-75
2021/01/01 01:01:27;;;;;;;45.15;28.00;;;0.90;99.90;;;;;;5130945;27;20075;-73
2021/01/01 01:03:55;;;;;;;50.53;30.10;;;0.80;99.90;;;;;;5130952;27;20367;-74
2021/01/01 01:06:23;;;;;;;52.83;30.88;;;0.80;99.90;;;;;;5112175;27;20100;-75
2021/01/01 01:08:50;;;;;;;57.30;33.80;;;0.80;99.90;;;;;;5112233;27;20039;-74
2021/01/01 01:11:25;;;;;;;52.63;30.02;;;0.80;99.90;;;;;;5109887;27;20075;-76
2021/01/01 01:13:52;;;;;;;59.30;33.35;;;0.80;99.90;;;;;;5112791;27;20047;-74
2021/01/01 01:16:26;;;;;;;53.25;30.98;;;0.80;99.90;;;;;;5112288;27;20054;-74
2021/01/01 01:18:53;;;;;;;47.10;28.70;;;0.80;99.90;;;;;;5102985;28;20055;-74
2021/01/01 01:21:22;;;;;;;47.83;28.35;;;0.80;99.90;;;;;;5128178;27;20119;-74
2021/01/01 01:23:49;;;;;;;51.72;30.23;;;0.80;99.90;;;;;;5112396;27;20047;-75
2021/01/01 01:26:16;;;;;;;49.85;28.83;;;0.80;99.90;;;;;;5128610;27;20071;-74
2021/01/01 01:28:42;;;;;;;48.75;29.25;;;0.80;99.90;;;;;;5112582;27;20043;-72
2021/01/01 01:31:09;;;;;;;47.47;27.70;;;0.80;99.90;;;;;;5093952;28;20503;-73
2021/01/01 01:33:35;;;;;;;49.40;28.23;;;0.80;99.90;;;;;;5092723;28;20104;-73
2021/01/01 01:36:02;;;;;;;49.45;27.38;;;0.80;99.90;;;;;;5096511;28;20094;-73
2021/01/01 01:38:34;;;;;;;44.47;27.48;;;0.80;99.90;;;;;;5109178;28;20051;-73
2021/01/01 01:41:01;;;;;;;44.05;26.73;;;0.90;99.90;;;;;;5108793;27;20108;-73
2021/01/01 01:43:34;;;;;;;47.90;28.40;;;0.90;99.90;;;;;;5091280;28;20051;-73
2021/01/01 01:46:00;;;;;;;47.38;27.40;;;0.90;99.90;;;;;;5091011;28;20055;-73
2021/01/01 01:48:36;;;;;;;52.28;28.15;;;0.90;99.90;;;;;;5105873;27;20059;-74
2021/01/01 01:51:08;;;;;;;50.25;27.92;;;1.00;99.90;;;;;;5111054;27;20047;-73
2021/01/01 01:53:46;;;;;;;45.95;26.88;;;1.00;99.90;;;;;;5125585;27;20067;-74
2021/01/01 01:56:13;;;;;;;44.95;26.95;;;1.00;99.90;;;;;;5114951;27;20066;-73
2021/01/01 01:58:41;;;;;;;46.67;27.70;;;1.00;99.90;;;;;;5126629;27;20051;-73
2021/01/01 02:01:08;;;;;;;44.40;26.27;;;1.10;99.90;;;;;;5111012;27;20047;-73
2021/01/01 02:03:35;;;;;;;43.25;26.75;;;1.00;99.90;;;;;;5110560;27;20043;-74
2021/01/01 02:06:02;;;;;;;44.13;26.50;;;1.10;99.90;;;;;;5110808;27;20050;-73
2021/01/01 02:08:28;;;;;;;45.53;26.58;;;1.10;99.90;;;;;;5104644;27;20118;-73
2021/01/01 02:10:57;;;;;;;46.40;27.45;;;1.10;99.90;;;;;;5108499;27;20058;-73
2021/01/01 02:13:24;;;;;;;45.63;25.90;;;1.10;99.90;;;;;;5099896;27;20055;-75
2021/01/01 02:15:52;;;;;;;41.85;24.90;;;1.20;99.90;;;;;;5110651;27;20408;-72
2021/01/01 02:18:38;;;;;;;39.30;24.63;;;1.20;99.90;;;;;;5123108;27;20043;-74
2021/01/01 02:21:06;;;;;;;39.50;23.92;;;1.20;99.90;;;;;;5110606;27;20046;-73
2021/01/01 02:23:33;;;;;;;41.97;25.33;;;1.20;99.90;;;;;;5129876;27;20042;-74
2021/01/01 02:26:00;;;;;;;47.53;27.63;;;1.10;99.90;;;;;;5125890;27;20440;-74
2021/01/01 02:28:27;;;;;;;42.97;26.48;;;1.10;99.90;;;;;;5102860;27;20473;-74
2021/01/01 02:30:54;;;;;;;47.75;28.33;;;1.10;99.90;;;;;;5111206;28;20055;-73
2021/01/01 02:33:20;;;;;;;47.03;27.40;;;1.10;99.90;;;;;;5111117;27;20091;-73
2021/01/01 02:35:47;;;;;;;49.97;29.27;;;1.10;99.90;;;;;;5129206;27;20051;-74
2021/01/01 02:38:13;;;;;;;48.17;28.38;;;1.20;99.90;;;;;;5104720;27;20154;-73
2021/01/01 02:40:40;;;;;;;43.08;26.55;;;1.20;99.90;;;;;;5109700;27;20126;-74
2021/01/01 02:43:06;;;;;;;47.88;27.65;;;1.20;99.90;;;;;;5110182;27;20100;-73
2021/01/01 02:45:33;;;;;;;47.35;27.85;;;1.20;99.90;;;;;;5108163;28;20128;-73
2021/01/01 02:48:14;;;;;;;49.08;28.63;;;1.20;99.90;;;;;;5100100;27;20434;-73
2021/01/01 02:50:41;;;;;;;47.83;28.05;;;1.20;99.90;;;;;;5111096;28;20076;-74
2021/01/01 02:53:08;;;;;;;52.35;29.67;;;1.20;99.90;;;;;;5128606;28;20107;-73
2021/01/01 02:55:35;;;;;;;51.92;29.65;;;1.20;99.90;;;;;;5116476;27;20150;-73
2021/01/01 02:58:02;;;;;;;52.55;31.25;;;1.20;99.90;;;;;;5106065;27;20074;-73
2021/01/01 03:00:30;;;;;;;54.17;31.88;;;1.20;99.90;;;;;;5117473;27;20497;-74
2021/01/01 03:02:56;;;;;;;58.75;32.20;;;1.10;99.90;;;;;;5117774;27;20059;-73
2021/01/01 03:05:23;;;;;;;63.10;35.70;;;1.10;99.90;;;;;;5136437;27;20410;-73
2021/01/01 03:07:49;;;;;;;58.60;34.20;;;1.10;99.90;;;;;;5129549;27;20070;-73
2021/01/01 03:10:16;;;;;;;61.38;33.97;;;1.10;99.90;;;;;;5117321;27;20116;-74
2021/01/01 03:12:42;;;;;;;64.20;35.08;;;1.10;99.90;;;;;;5134917;27;20055;-73
2021/01/01 03:15:09;;;;;;;66.07;35.80;;;1.10;99.90;;;;;;5117490;27;20099;-73
2021/01/01 03:17:36;;;;;;;65.45;35.88;;;1.10;99.90;;;;;;5112339;27;20044;-74
2021/01/01 03:20:04;;;;;;;63.75;35.33;;;1.10;99.90;;;;;;5117218;27;20070;-73
2021/01/01 03:22:30;;;;;;;63.80;34.13;;;1.10;99.90;;;;;;5116940;27;20043;-74
2021/01/01 03:24:56;;;;;;;70.38;36.70;;;1.10;99.90;;;;;;5120617;27;20504;-73
2021/01/01 03:27:23;;;;;;;61.58;34.67;;;1.00;99.90;;;;;;5121390;27;20457;-74
2021/01/01 03:29:49;;;;;;;63.15;34.45;;;1.00;99.90;;;;;;5107839;27;20097;-74
2021/01/01 03:32:16;;;;;;;64.15;34.13;;;1.10;99.90;;;;;;5135066;27;20070;-74
2021/01/01 03:34:42;;;;;;;66.53;35.63;;;1.00;99.90;;;;;;5121505;27;20047;-73
2021/01/01 03:37:09;;;;;;;67.90;35.25;;;1.10;99.90;;;;;;5111705;28;20072;-73
2021/01/01 03:39:35;;;;;;;66.18;34.70;;;1.10;99.90;;;;;;5113035;27;20111;-73
2021/01/01 03:42:01;;;;;;;66.35;35.47;;;1.10;99.90;;;;;;5125355;27;20054;-73
2021/01/01 03:44:28;;;;;;;64.75;35.05;;;1.10;99.90;;;;;;5111569;27;20058;-75
2021/01/01 03:46:55;;;;;;;66.55;34.15;;;1.10;99.90;;;;;;5113884;27;20060;-73
2021/01/01 03:49:21;;;;;;;65.95;35.92;;;1.00;99.90;;;;;;5127786;27;20074;-74
2021/01/01 03:51:47;;;;;;;67.38;34.28;;;1.00;99.90;;;;;;5116723;27;20049;-74
2021/01/01 03:54:14;;;;;;;70.15;35.53;;;1.00;99.90;;;;;;5135647;27;20490;-73
2021/01/01 03:56:40;;;;;;;68.20;35.15;;;1.00;99.90;;;;;;5114348;27;20067;-74
2021/01/01 03:59:07;;;;;;;63.47;35.25;;;0.90;99.90;;;;;;5097555;28;20043;-72
2021/01/01 04:01:33;;;;;;;76.95;37.60;;;0.90;99.90;;;;;;5110979;27;20127;-74
2021/01/01 04:03:59;;;;;;;81.55;39.08;;;0.90;99.90;;;;;;5135137;27;20095;-74
2021/01/01 04:06:26;;;;;;;74.00;38.03;;;0.90;99.90;;;;;;5132119;27;20397;-74
2021/01/01 04:08:53;;;;;;;70.05;36.25;;;0.90;99.90;;;;;;5118438;27;20047;-74
2021/01/01 04:11:19;;;;;;;72.22;36.05;;;0.80;99.90;;;;;;5130427;27;20119;-74
2021/01/01 04:13:46;;;;;;;77.68;37.92;;;0.80;99.90;;;;;;5132307;27;20058;-73
2021/01/01 04:16:12;;;;;;;74.15;36.88;;;0.80;99.90;;;;;;5132114;27;20122;-73
2021/01/01 04:18:39;;;;;;;76.05;37.17;;;0.70;99.90;;;;;;5111999;27;20424;-74
2021/01/01 04:21:07;;;;;;;81.45;39.65;;;0.70;99.90;;;;;;5113144;27;20043;-73
2021/01/01 04:23:34;;;;;;;77.72;37.83;;;0.70;99.90;;;;;;5113796;27;20436;-73
2021/01/01 04:26:01;;;;;;;81.78;38.70;;;0.70;99.90;;;;;;5111220;27;20050;-74
2021/01/01 04:28:27;;;;;;;84.38;39.05;;;0.70;99.90;;;;;;5129370;27;20055;-75
2021/01/01 04:30:54;;;;;;;81.20;38.58;;;0.70;99.90;;;;;;5113321;27;20103;-74
2021/01/01 04:33:20;;;;;;;79.00;39.05;;;0.60;99.90;;;;;;5104571;28;20043;-75
2021/01/01 04:35:47;;;;;;;82.85;38.35;;;0.60;99.90;;;;;;5126475;27;20054;-76
2021/01/01 04:38:13;;;;;;;83.88;39.45;;;0.60;99.90;;;;;;5104241;27;20051;-73
2021/01/01 04:40:40;;;;;;;87.45;39.53;;;0.60;99.90;;;;;;5130855;27;20054;-74
2021/01/01 04:43:07;;;;;;;80.72;36.20;;;0.60;99.90;;;;;;5131094;27;20035;-73
2021/01/01 04:45:33;;;;;;;77.28;36.05;;;0.60;99.90;;;;;;5131989;27;20047;-74
2021/01/01 04:48:00;;;;;;;76.57;36.13;;;0.60;99.90;;;;;;5101965;27;20096;-74
2021/01/01 04:50:28;;;;;;;83.78;37.30;;;0.50;99.90;;;;;;5113655;27;20074;-75
2021/01/01 04:52:57;;;;;;;89.00;39.13;;;0.50;99.90;;;;;;5108779;28;20478;-73
2021/01/01 04:55:26;;;;;;;84.22;37.08;;;0.60;99.90;;;;;;5108995;28;20516;-75
2021/01/01 04:57:53;;;;;;;78.45;37.53;;;0.50;99.90;;;;;;5107997;28;20062;-73
2021/01/01 05:00:21;;;;;;;78.65;36.25;;;0.50;99.90;;;;;;5109329;28;20470;-75
2021/01/01 05:02:47;;;;;;;84.55;37.92;;;0.50;99.90;;;;;;5109906;28;20044;-74
2021/01/01 05:05:14;;;;;;;71.72;37.00;;;0.50;99.90;;;;;;5109922;28;20137;-74
2021/01/01 05:07:40;;;;;;;80.00;38.60;;;0.40;99.90;;;;;;5104169;28;20044;-74
2021/01/01 05:10:08;;;;;;;74.35;35.95;;;0.40;99.90;;;;;;5108459;28;20124;-73
2021/01/01 05:12:35;;;;;;;76.53;35.03;;;0.50;99.90;;;;;;5107660;28;20060;-74
2021/01/01 05:15:02;;;;;;;87.22;38.13;;;0.50;99.90;;;;;;5109502;28;20668;-73
2021/01/01 05:17:36;;;;;;;81.68;36.53;;;0.50;99.90;;;;;;5103837;28;20127;-75
2021/01/01 05:20:08;;;;;;;80.03;35.72;;;0.40;99.90;;;;;;5109381;28;20124;-74
2021/01/01 05:22:35;;;;;;;100.07;39.58;;;0.40;99.90;;;;;;5110181;28;20101;-73
2021/01/01 05:25:15;;;;;;;91.38;36.53;;;0.40;99.90;;;;;;5110253;28;20095;-74
2021/01/01 05:27:47;;;;;;;77.32;34.78;;;0.40;99.90;;;;;;5092243;27;20089;-74
2021/01/01 05:30:16;;;;;;;90.75;36.95;;;0.40;99.90;;;;;;5102294;28;20083;-73
2021/01/01 05:32:52;;;;;;;78.90;36.22;;;0.40;99.90;;;;;;5105034;28;20051;-74
2021/01/01 05:35:32;;;;;;;92.32;37.35;;;0.40;99.90;;;;;;5101599;28;20468;-74
2021/01/01 05:38:15;;;;;;;93.07;39.88;;;0.40;99.90;;;;;;5108908;28;20059;-74
2021/01/01 05:40:46;;;;;;;109.60;40.97;;;0.40;99.90;;;;;;5107853;28;20118;-74
2021/01/01 05:43:20;;;;;;;105.38;41.75;;;0.40;99.90;;;;;;5095078;28;20132;-73
2021/01/01 05:45:47;;;;;;;101.70;41.67;;;0.40;99.90;;;;;;5108352;28;20120;-75
2021/01/01 05:48:14;;;;;;;91.63;38.70;;;0.50;99.90;;;;;;5108393;28;20080;-74
2021/01/01 05:50:40;;;;;;;93.90;38.38;;;0.50;99.90;;;;;;5110456;28;20059;-74
2021/01/01 05:53:10;;;;;;;104.78;39.67;;;0.50;99.90;;;;;;5102500;28;20224;-74
2021/01/01 05:55:37;;;;;;;107.18;41.80;;;0.50;99.90;;;;;;5104253;28;20044;-74
2021/01/01 05:58:16;;;;;;;101.00;40.97;;;0.50;99.90;;;;;;5107744;28;20079;-74
2021/01/01 06:00:43;;;;;;;100.25;41.70;;;0.50;99.90;;;;;;5110147;27;20108;-73
2021/01/01 06:03:27;;;;;;;105.00;41.15;;;0.50;99.90;;;;;;5109287;28;20439;-74
2021/01/01 06:05:55;;;;;;;108.32;41.47;;;0.60;99.90;;;;;;5105784;28;20051;-74
2021/01/01 06:08:26;;;;;;;104.85;40.58;;;0.60;99.90;;;;;;5104176;28;20117;-75
2021/01/01 06:10:58;;;;;;;103.45;41.25;;;0.60;99.90;;;;;;5104352;28;20318;-74
2021/01/01 06:13:29;;;;;;;102.95;40.55;;;0.70;99.90;;;;;;5105212;28;20398;-74
2021/01/01 06:15:57;;;;;;;115.32;42.72;;;0.70;99.90;;;;;;5105400;28;20052;-74
2021/01/01 06:18:28;;;;;;;99.25;40.30;;;0.70;99.90;;;;;;5104354;28;20112;-75
2021/01/01 06:21:04;;;;;;;105.72;41.85;;;0.80;99.90;;;;;;5109076;28;20136;-74
2021/01/01 06:23:40;;;;;;;107.45;40.83;;;0.80;99.90;;;;;;5109245;28;20044;-74
2021/01/01 06:26:11;;;;;;;122.97;44.78;;;0.80;99.90;;;;;;5102733;28;20120;-73
2021/01/01 06:28:43;;;;;;;105.75;40.22;;;0.80;99.90;;;;;;5104008;28;20047;-74
2021/01/01 06:31:11;;;;;;;97.75;42.63;;;0.80;99.90;;;;;;5107559;28;20051;-73
2021/01/01 06:33:43;;;;;;;104.30;41.40;;;0.80;99.90;;;;;;5096413;28;20391;-74
2021/01/01 06:36:36;;;;;;;95.85;38.83;;;0.90;99.90;;;;;;5103109;28;20063;-73
2021/01/01 06:39:03;;;;;;;;;;;0.80;99.90;;;;;;5109337;28;20048;-75
2021/01/01 06:41:46;;;;;;;82.05;36.60;;;0.90;99.90;;;;;;5105176;28;19930;-74
2021/01/01 06:44:34;;;;;;;74.68;35.88;;;0.90;99.90;;;;;;5109374;28;20442;-74
2021/01/01 06:47:00;;;;;;;88.30;39.70;;;0.90;99.90;;;;;;5097291;28;20051;-74
2021/01/01 06:49:34;;;;;;;91.97;39.13;;;0.90;99.90;;;;;;5107545;28;20053;-74
2021/01/01 06:52:15;;;;;;;88.38;38.50;;;0.80;99.90;;;;;;5106780;28;20196;-73
2021/01/01 06:54:58;;;;;;;97.25;40.53;;;0.80;99.90;;;;;;5107315;28;20130;-74
2021/01/01 06:57:29;;;;;;;94.32;40.25;;;0.80;99.90;;;;;;5105595;28;20089;-74
2021/01/01 06:59:58;;;;;;;95.00;39.83;;;0.80;99.90;;;;;;5107569;28;20059;-74
2021/01/01 07:02:28;;;;;;;97.30;40.95;;;0.80;99.90;;;;;;5108803;28;20055;-74
2021/01/01 07:05:00;;;;;;;103.78;40.67;;;0.80;99.90;;;;;;5108689;28;20063;-73
2021/01/01 07:07:44;;;;;;;96.60;39.58;;;0.80;99.90;;;;;;5098093;28;20104;-75
2021/01/01 07:10:32;;;;;;;90.18;37.95;;;0.80;99.90;;;;;;5108232;28;20409;-74
2021/01/01 07:13:17;;;;;;;87.38;37.80;;;0.80;99.90;;;;;;5106315;28;20442;-74
2021/01/01 07:15:44;;;;;;;71.55;33.13;;;0.80;99.90;;;;;;5102316;27;20116;-74
2021/01/01 07:18:10;;;;;;;79.93;33.75;;;0.80;99.90;;;;;;5101336;28;20095;-75
2021/01/01 07:20:40;;;;;;;67.65;31.25;;;0.80;99.90;;;;;;5107323;28;20090;-74
2021/01/01 07:23:07;;;;;;;78.00;32.75;;;0.80;99.90;;;;;;5108366;28;20051;-74
2021/01/01 07:25:38;;;;;;;60.70;27.00;;;0.80;99.90;;;;;;5102468;28;20497;-75
2021/01/01 07:28:09;;;;;;;63.28;29.02;;;0.80;99.90;;;;;;5106053;28;20067;-74
2021/01/01 07:30:36;;;;;;;65.50;29.38;;;0.80;99.90;;;;;;5107350;28;20077;-75
2021/01/01 07:33:03;;;;;;;64.47;27.35;;;0.80;99.90;;;;;;5100281;28;20078;-74
2021/01/01 07:35:31;;;;;;;59.60;28.45;;;0.80;99.90;;;;;;5096157;28;20523;-75
2021/01/01 07:37:59;;;;;;;58.50;26.90;;;0.70;99.90;;;;;;5105607;28;20063;-74
2021/01/01 07:40:26;;;;;;;60.53;28.10;;;0.70;99.90;;;;;;5107570;28;20474;-75
2021/01/01 07:42:53;;;;;;;71.53;30.23;;;0.70;99.90;;;;;;5110615;28;20490;-74
2021/01/01 07:45:20;;;;;;;62.85;29.55;;;0.80;99.90;;;;;;5108172;27;20086;-74
2021/01/01 07:47:48;;;;;;;65.40;30.65;;;0.80;99.90;;;;;;5105786;28;20486;-75
2021/01/01 07:50:17;;;;;;;73.50;30.35;;;0.80;99.90;;;;;;5112632;28;20502;-75
2021/01/01 07:52:44;;;;;;;57.40;27.70;;;0.80;99.90;;;;;;5121911;27;20047;-74
2021/01/01 07:55:11;;;;;;;60.53;27.30;;;0.80;99.90;;;;;;5108144;28;20073;-74
2021/01/01 07:57:39;;;;;;;54.08;25.85;;;0.90;99.90;;;;;;5108738;27;20077;-74
2021/01/01 08:00:07;;;;;;;45.33;22.92;;;0.90;99.90;;;;;;5114428;27;20128;-74
2021/01/01 08:02:34;;;;;;;49.08;23.45;;;0.90;99.90;;;;;;5114050;27;20055;-74
2021/01/01 08:05:03;;;;;;;39.53;20.70;;;0.90;99.90;;;;;;5110718;28;20105;-74
2021/01/01 08:07:30;;;;;;;41.92;21.05;;;1.00;99.90;;;;;;5122047;27;20047;-75
2021/01/01 08:09:56;;;;;;;52.65;25.13;;;1.00;99.90;;;;;;5111257;27;20142;-74
2021/01/01 08:12:23;;;;;;;44.10;24.00;;;1.00;99.90;;;;;;5111947;27;20070;-75
2021/01/01 08:14:51;;;;;;;61.33;29.70;;;1.10;99.90;;;;;;5111644;27;20047;-75
2021/01/01 08:17:23;;;;;;;48.72;23.60;;;1.10;99.90;;;;;;5131870;27;20077;-75
2021/01/01 08:19:49;;;;;;;48.85;23.48;;;1.10;99.90;;;;;;5110157;27;20050;-74
2021/01/01 08:22:24;;;;;;;59.72;30.15;;;1.00;99.90;;;;;;5111849;27;20133;-74
2021/01/01 08:24:54;;;;;;;68.32;31.23;;;1.00;99.90;;;;;;5121269;27;20175;-74
2021/01/01 08:27:22;;;;;;;62.67;30.38;;;1.00;99.90;;;;;;5108155;27;20055;-75
2021/01/01 08:29:54;;;;;;;65.28;30.60;;;1.00;99.90;;;;;;5123243;27;20520;-74
2021/01/01 08:32:21;;;;;;;58.67;29.73;;;1.00;99.90;;;;;;5097161;27;20100;-75
2021/01/01 08:34:51;;;;;;;45.78;23.25;;;1.10;99.90;;;;;;5109710;27;20039;-74
2021/01/01 08:37:18;;;;;;;36.85;19.85;;;1.10;99.90;;;;;;5125984;27;20035;-78
2021/01/01 08:39:45;;;;;;;31.80;17.70;;;1.10;99.90;;;;;;5112679;27;20476;-78
2021/01/01 08:42:22;;;;;;;25.70;14.20;;;1.10;99.90;;;;;;5126859;27;20104;-78
2021/01/01 08:44:49;;;;;;;20.83;12.00;;;1.10;99.90;;;;;;5107038;27;20092;-79
2021/01/01 08:47:16;;;;;;;22.17;13.38;;;1.10;99.90;;;;;;5113136;27;20122;-78
2021/01/01 08:49:42;;;;;;;19.15;12.50;;;1.00;99.90;;;;;;5129360;27;20458;-77
2021/01/01 08:52:10;;;;;;;17.08;11.55;;;1.00;99.90;;;;;;5129002;27;20075;-78
2021/01/01 08:54:44;;;;;;;16.77;11.38;;;1.00;99.90;;;;;;5119772;27;20044;-77
2021/01/01 08:57:11;;;;;;;16.25;11.23;;;1.00;99.90;;;;;;5114762;27;20158;-74
2021/01/01 08:59:37;;;;;;;16.50;10.70;;;1.10;99.90;;;;;;5128756;27;20403;-74
2021/01/01 09:02:12;;;;;;;15.60;9.50;;;1.10;99.90;;;;;;5123915;27;20233;-75
2021/01/01 09:08:23;;;;;;;11.27;8.18;;;1.20;99.90;;;;;;5055162;28;20049;-74
2021/01/01 09:18:15;;;;;;;9.00;6.43;;;1.50;99.90;;;;;;5023968;28;20057;-74
2021/01/01 09:21:09;;;;;;;9.05;6.18;;;1.60;99.90;;;;;;5008160;28;20183;-75
2021/01/01 09:27:44;;;;;;;6.10;4.63;;;1.80;99.90;;;;;;5034579;28;20140;-74
2021/01/01 09:37:10;;;;;;;4.68;3.95;;;2.10;99.90;;;;;;4984751;28;20501;-74
